Time;durP1;ratioP1;P1;durP2;ratioP2;P2;SDS_P1;SDS_P2;PMS_P1;PMS_P2;Temp;Humidity;BMP_temperature;BMP_pressure;BME280_temperature;BME280_humidity;BME280_pressure;Samples;Min_cycle;Max_cycle;Signal;HPM_P1;HPM_P2
2021/07/15 00:02:23;;;;;;;9.68;2.78;;;22.60;99.90;;;;;;5096293;28;20023;-73
2021/07/15 00:04:49;;;;;;;4.05;2.35;;;22.60;99.90;;;;;;5106682;28;20023;-71
2021/07/15 00:07:16;;;;;;;3.10;1.70;;;22.80;99.90;;;;;;5102206;28;20171;-71
2021/07/15 00:09:43;;;;;;;6.60;2.65;;;22.80;99.90;;;;;;5099161;28;20458;-71
2021/07/15 00:12:14;;;;;;;4.63;2.10;;;22.90;99.90;;;;;;5101876;28;20073;-71
2021/07/15 00:14:41;;;;;;;10.85;3.03;;;23.00;99.90;;;;;;5102897;28;20028;-71
2021/07/15 00:17:07;;;;;;;6.50;2.10;;;22.90;99.90;;;;;;5103760;28;20032;-72
2021/07/15 00:19:33;;;;;;;4.80;2.40;;;23.00;99.90;;;;;;5107541;28;20020;-71
2021/07/15 00:22:00;;;;;;;5.53;2.60;;;22.90;99.90;;;;;;5111980;28;20076;-72
2021/07/15 00:24:27;;;;;;;8.05;2.13;;;22.90;99.90;;;;;;5108110;28;20028;-71
2021/07/15 00:26:53;;;;;;;6.13;2.50;;;22.80;99.90;;;;;;5108854;28;20035;-71
2021/07/15 00:29:20;;;;;;;8.30;3.22;;;22.70;99.90;;;;;;5111113;28;20031;-71
2021/07/15 00:31:46;;;;;;;7.57;3.08;;;22.70;99.90;;;;;;5103622;28;20027;-72
2021/07/15 00:34:12;;;;;;;5.93;2.17;;;22.70;99.90;;;;;;5098771;28;20028;-72
2021/07/15 00:36:38;;;;;;;5.35;2.30;;;22.60;99.90;;;;;;5101320;28;20035;-72
2021/07/15 00:39:06;;;;;;;8.13;1.95;;;22.60;99.90;;;;;;5101562;28;20024;-71
2021/07/15 00:41:35;;;;;;;10.27;4.05;;;22.60;99.90;;;;;;5109343;28;20507;-72
2021/07/15 00:44:02;;;;;;;6.32;2.38;;;22.60;99.90;;;;;;5110193;28;20617;-72
2021/07/15 00:46:28;;;;;;;6.97;2.75;;;22.50;99.90;;;;;;5108587;28;20100;-71
2021/07/15 00:48:54;;;;;;;5.93;2.42;;;22.50;99.90;;;;;;5107769;28;20485;-71
2021/07/15 00:51:21;;;;;;;6.80;2.47;;;22.40;99.90;;;;;;5104220;28;20473;-72
2021/07/15 00:53:47;;;;;;;5.15;2.58;;;22.20;99.90;;;;;;5105927;28;20028;-71
2021/07/15 00:56:13;;;;;;;7.47;2.72;;;22.20;99.90;;;;;;5103971;28;20017;-70
2021/07/15 00:58:39;;;;;;;5.47;2.95;;;22.10;99.90;;;;;;5098273;28;20031;-70
2021/07/15 01:01:07;;;;;;;10.60;4.10;;;22.00;99.90;;;;;;5107564;28;20028;-71
2021/07/15 01:03:33;;;;;;;3.08;1.80;;;22.00;99.90;;;;;;5103758;28;20020;-70
2021/07/15 01:05:58;;;;;;;15.32;2.50;;;22.00;99.90;;;;;;5103446;28;20019;-72
2021/07/15 01:08:24;;;;;;;4.47;2.42;;;22.00;99.90;;;;;;5101986;28;20481;-71
2021/07/15 01:11:07;;;;;;;8.13;2.15;;;21.90;99.90;;;;;;5112403;28;20028;-71
2021/07/15 01:13:46;;;;;;;11.07;3.22;;;21.70;99.90;;;;;;5113323;28;20023;-71
2021/07/15 01:16:35;;;;;;;8.10;2.65;;;21.70;99.90;;;;;;5109037;28;20128;-70
2021/07/15 01:19:12;;;;;;;7.82;2.58;;;21.70;99.90;;;;;;5108451;28;20156;-70
2021/07/15 01:21:53;;;;;;;10.18;3.05;;;21.70;99.90;;;;;;5105143;28;20136;-71
2021/07/15 01:24:23;;;;;;;;;;;21.70;99.90;;;;;;5113394;28;20104;-72
2021/07/15 01:26:51;;;;;;;5.82;2.25;;;21.70;99.90;;;;;;5103788;28;19907;-73
2021/07/15 01:29:30;;;;;;;6.00;2.40;;;21.70;99.90;;;;;;5107263;28;20107;-70
2021/07/15 01:31:58;;;;;;;4.40;1.98;;;21.60;99.90;;;;;;5103255;28;20046;-70
2021/07/15 01:34:28;;;;;;;5.00;2.13;;;21.60;99.90;;;;;;5107442;28;20046;-71
2021/07/15 01:36:56;;;;;;;6.25;2.28;;;21.60;99.90;;;;;;5104497;28;20020;-72
2021/07/15 01:39:27;;;;;;;4.75;2.40;;;21.70;99.90;;;;;;5107579;28;20081;-70
2021/07/15 01:41:56;;;;;;;7.45;2.38;;;21.70;99.90;;;;;;5107527;28;20035;-70
2021/07/15 01:44:30;;;;;;;5.00;2.30;;;21.80;99.90;;;;;;5108115;28;20054;-71
2021/07/15 01:46:58;;;;;;;3.92;2.38;;;21.80;99.90;;;;;;5105868;27;20486;-70
2021/07/15 01:49:25;;;;;;;4.13;2.05;;;21.90;99.90;;;;;;5111266;28;20028;-71
2021/07/15 01:51:54;;;;;;;8.80;2.47;;;21.90;99.90;;;;;;5106960;28;20028;-72
2021/07/15 01:54:21;;;;;;;11.15;3.08;;;22.00;99.90;;;;;;5108814;27;20028;-70
2021/07/15 01:56:48;;;;;;;5.22;2.35;;;21.90;99.90;;;;;;5108115;28;20044;-70
2021/07/15 01:59:18;;;;;;;5.43;2.35;;;22.00;99.90;;;;;;5110324;28;20468;-70
2021/07/15 02:01:47;;;;;;;9.30;2.42;;;21.90;99.90;;;;;;5106639;28;20508;-71
2021/07/15 02:04:15;;;;;;;4.35;1.80;;;21.90;99.90;;;;;;5104543;28;20046;-71
2021/07/15 02:06:43;;;;;;;7.57;2.47;;;21.90;99.90;;;;;;5108170;28;20028;-72
2021/07/15 02:09:11;;;;;;;21.10;3.22;;;21.90;99.90;;;;;;5109611;28;20047;-71
2021/07/15 02:11:39;;;;;;;5.95;2.50;;;21.90;99.90;;;;;;5095479;28;20059;-71
2021/07/15 02:14:09;;;;;;;5.00;2.35;;;22.00;99.90;;;;;;5109126;28;20024;-72
2021/07/15 02:16:41;;;;;;;11.82;2.47;;;21.90;99.90;;;;;;5100823;28;20031;-71
2021/07/15 02:19:07;;;;;;;5.32;2.45;;;21.80;99.90;;;;;;5106634;28;20423;-71
2021/07/15 02:21:36;;;;;;;17.02;3.30;;;21.60;99.90;;;;;;5111872;28;20027;-71
2021/07/15 02:24:04;;;;;;;5.40;2.53;;;21.70;99.90;;;;;;5108297;28;20023;-71
2021/07/15 02:26:31;;;;;;;5.70;2.55;;;21.60;99.90;;;;;;5109613;28;20039;-72
2021/07/15 02:28:58;;;;;;;5.72;2.65;;;21.60;99.90;;;;;;5110514;28;20039;-71
2021/07/15 02:31:36;;;;;;;8.88;2.50;;;21.60;99.90;;;;;;5109027;28;20053;-71
2021/07/15 02:34:07;;;;;;;9.55;3.60;;;21.50;99.90;;;;;;5109852;28;20090;-70
2021/07/15 02:36:34;;;;;;;8.32;3.15;;;21.50;99.90;;;;;;5104737;28;20087;-71
2021/07/15 02:39:02;;;;;;;12.75;3.03;;;21.50;99.90;;;;;;5107590;28;20492;-71
2021/07/15 02:41:28;;;;;;;10.85;3.20;;;21.50;99.90;;;;;;5103817;28;20024;-71
2021/07/15 02:43:54;;;;;;;7.13;1.98;;;21.40;99.90;;;;;;5106595;28;20092;-71
2021/07/15 02:46:20;;;;;;;7.40;2.40;;;21.30;99.90;;;;;;5109518;28;20461;-72
2021/07/15 02:48:45;;;;;;;9.93;2.67;;;21.30;99.90;;;;;;5107939;28;20051;-72
2021/07/15 02:51:11;;;;;;;3.97;2.40;;;21.30;99.90;;;;;;5109212;28;20027;-70
2021/07/15 02:53:38;;;;;;;7.97;2.67;;;21.50;99.90;;;;;;5109173;28;20370;-71
2021/07/15 02:56:23;;;;;;;5.32;2.63;;;21.60;99.90;;;;;;5107474;28;20024;-71
2021/07/15 02:59:30;;;;;;;6.18;2.38;;;21.70;99.90;;;;;;5109002;28;20047;-71
2021/07/15 03:02:16;;;;;;;5.30;2.35;;;21.50;99.90;;;;;;5080406;28;20066;-71
2021/07/15 03:04:50;;;;;;;7.38;2.55;;;21.30;99.90;;;;;;5106153;28;20081;-71
2021/07/15 03:07:20;;;;;;;6.43;2.72;;;21.20;99.90;;;;;;5108819;28;20446;-71
2021/07/15 03:09:50;;;;;;;13.55;4.45;;;21.20;99.90;;;;;;5104161;28;20054;-69
2021/07/15 03:12:26;;;;;;;12.13;3.22;;;21.20;99.90;;;;;;5105178;28;20366;-70
2021/07/15 03:14:54;;;;;;;11.10;2.63;;;21.20;99.90;;;;;;5105775;28;20069;-71
2021/07/15 03:17:31;;;;;;;2.60;2.15;;;21.10;99.90;;;;;;5098989;28;20030;-70
2021/07/15 03:19:58;;;;;;;6.30;2.38;;;21.20;99.90;;;;;;5110468;28;20020;-71
2021/07/15 03:22:25;;;;;;;4.55;3.08;;;21.20;99.90;;;;;;5108323;28;20024;-72
2021/07/15 03:24:58;;;;;;;5.78;2.53;;;21.20;99.90;;;;;;5112063;28;20031;-72
2021/07/15 03:27:26;;;;;;;7.10;3.08;;;21.20;99.90;;;;;;5106198;28;20024;-70
2021/07/15 03:29:54;;;;;;;3.70;2.17;;;21.30;99.90;;;;;;5109452;28;20035;-71
2021/07/15 03:32:20;;;;;;;8.00;2.10;;;21.40;99.90;;;;;;5104330;28;20237;-71
2021/07/15 03:34:48;;;;;;;7.90;2.80;;;21.50;99.90;;;;;;5108888;28;20080;-71
2021/07/15 03:37:16;;;;;;;7.60;2.40;;;21.50;99.90;;;;;;5105981;28;20035;-72
2021/07/15 03:39:45;;;;;;;10.20;2.40;;;21.60;99.90;;;;;;5103223;28;20035;-72
2021/07/15 03:42:12;;;;;;;6.78;3.13;;;21.50;99.90;;;;;;5106367;28;20096;-69
2021/07/15 03:44:39;;;;;;;11.73;2.65;;;21.60;99.90;;;;;;5111438;28;20098;-71
2021/07/15 03:47:06;;;;;;;11.32;3.17;;;21.60;99.90;;;;;;5101179;28;20024;-71
2021/07/15 03:49:32;;;;;;;9.25;2.95;;;21.50;99.90;;;;;;5108386;28;20023;-71
2021/07/15 03:51:58;;;;;;;9.35;2.88;;;21.40;99.90;;;;;;5102140;28;20481;-71
2021/07/15 03:54:25;;;;;;;7.55;2.72;;;21.40;99.90;;;;;;5102697;28;20074;-72
2021/07/15 03:56:51;;;;;;;7.22;2.45;;;21.40;99.90;;;;;;5097375;28;20020;-73
2021/07/15 03:59:19;;;;;;;9.90;3.30;;;21.40;99.90;;;;;;5108251;28;20019;-72
2021/07/15 04:01:55;;;;;;;3.70;2.00;;;21.40;99.90;;;;;;5107331;28;20028;-70
2021/07/15 04:04:24;;;;;;;11.68;2.50;;;21.50;99.90;;;;;;5122066;27;20027;-70
2021/07/15 04:06:51;;;;;;;8.68;2.13;;;21.40;99.90;;;;;;5108891;28;20031;-71
2021/07/15 04:09:17;;;;;;;6.32;2.55;;;21.70;99.90;;;;;;5106829;28;20474;-71
2021/07/15 04:11:46;;;;;;;14.48;2.30;;;21.80;99.90;;;;;;5107957;28;20397;-71
2021/07/15 04:14:22;;;;;;;4.03;2.45;;;21.90;99.90;;;;;;5100607;28;20046;-73
2021/07/15 04:17:08;;;;;;;8.60;2.85;;;22.10;99.90;;;;;;5105100;28;20016;-70
2021/07/15 04:19:35;;;;;;;8.55;2.75;;;22.20;99.90;;;;;;5109199;28;20083;-71
2021/07/15 04:22:05;;;;;;;9.32;2.50;;;22.30;99.90;;;;;;5104222;28;20765;-72
2021/07/15 04:24:33;;;;;;;7.13;3.65;;;22.40;99.90;;;;;;5101340;28;20540;-72
2021/07/15 04:27:02;;;;;;;6.82;2.95;;;22.50;99.90;;;;;;5109547;28;20028;-70
2021/07/15 04:29:29;;;;;;;12.98;3.40;;;22.50;99.90;;;;;;5110546;28;20039;-70
2021/07/15 04:32:16;;;;;;;4.32;2.85;;;22.50;99.90;;;;;;5103142;28;20031;-74
2021/07/15 04:34:45;;;;;;;7.82;2.28;;;22.40;99.90;;;;;;5105837;28;20022;-72
2021/07/15 04:37:11;;;;;;;4.85;2.75;;;22.50;99.90;;;;;;5101642;28;20045;-73
2021/07/15 04:39:37;;;;;;;10.70;2.30;;;22.50;99.90;;;;;;5102267;28;20047;-73
2021/07/15 04:42:05;;;;;;;9.15;2.60;;;22.50;99.90;;;;;;5111109;28;20102;-72
2021/07/15 04:44:35;;;;;;;7.00;2.70;;;22.50;99.90;;;;;;5105978;28;20057;-71
2021/07/15 04:47:03;;;;;;;6.80;3.00;;;22.50;99.90;;;;;;5111641;28;20094;-71
2021/07/15 04:49:30;;;;;;;11.00;2.90;;;22.50;99.90;;;;;;5109533;28;20016;-71
2021/07/15 04:51:56;;;;;;;4.88;1.80;;;22.50;99.90;;;;;;5109450;28;20032;-73
2021/07/15 04:54:23;;;;;;;6.47;2.50;;;22.50;99.90;;;;;;5109418;27;20035;-72
2021/07/15 04:56:50;;;;;;;9.65;2.92;;;22.50;99.90;;;;;;5107508;28;20135;-71
2021/07/15 04:59:17;;;;;;;8.93;2.53;;;22.50;99.90;;;;;;5106748;28;20473;-71
2021/07/15 05:01:43;;;;;;;8.25;3.03;;;22.50;99.90;;;;;;5109764;28;20032;-73
2021/07/15 05:04:08;;;;;;;9.02;2.58;;;22.60;99.90;;;;;;5106527;28;20489;-72
2021/07/15 05:06:34;;;;;;;5.43;2.60;;;22.60;99.90;;;;;;5108716;28;20041;-71
2021/07/15 05:09:00;;;;;;;3.10;2.13;;;22.70;99.90;;;;;;5112710;28;20496;-75
2021/07/15 05:11:26;;;;;;;8.98;2.67;;;22.70;99.90;;;;;;5109297;28;20094;-71
2021/07/15 05:13:52;;;;;;;5.70;2.55;;;22.80;99.90;;;;;;5109441;28;20016;-70
2021/07/15 05:16:18;;;;;;;7.25;2.70;;;22.90;99.90;;;;;;5107887;28;20035;-70
2021/07/15 05:18:45;;;;;;;10.05;3.55;;;22.90;99.90;;;;;;5109389;28;20074;-72
2021/07/15 05:21:11;;;;;;;5.95;2.45;;;22.90;99.90;;;;;;5110535;28;20031;-71
2021/07/15 05:23:37;;;;;;;7.07;2.88;;;23.10;99.90;;;;;;5099951;28;20032;-72
2021/07/15 05:26:02;;;;;;;4.85;2.38;;;23.10;99.90;;;;;;5109377;28;20062;-70
2021/07/15 05:28:28;;;;;;;7.47;2.75;;;23.10;99.90;;;;;;5107923;28;20027;-71
2021/07/15 05:30:54;;;;;;;5.95;3.00;;;23.20;99.90;;;;;;5104397;28;20055;-70
2021/07/15 05:33:21;;;;;;;7.55;2.95;;;23.20;99.90;;;;;;5101036;28;20065;-72
2021/07/15 05:35:47;;;;;;;14.20;3.05;;;23.30;99.90;;;;;;5111693;28;20047;-71
2021/07/15 05:38:12;;;;;;;7.32;2.63;;;23.40;99.90;;;;;;5106198;28;20047;-72
2021/07/15 05:40:40;;;;;;;7.72;2.60;;;23.50;99.90;;;;;;5109030;28;20036;-70
2021/07/15 05:43:06;;;;;;;12.27;2.70;;;23.50;99.90;;;;;;5107787;27;20039;-70
2021/07/15 05:45:32;;;;;;;5.47;2.05;;;23.60;99.90;;;;;;5102775;28;20028;-71
2021/07/15 05:47:58;;;;;;;7.38;2.83;;;23.60;99.90;;;;;;5104693;28;20028;-70
2021/07/15 05:50:26;;;;;;;10.70;2.85;;;23.40;99.90;;;;;;5093016;28;20095;-71
2021/07/15 05:52:52;;;;;;;7.13;2.05;;;23.40;99.90;;;;;;5108184;27;20028;-71
2021/07/15 05:55:18;;;;;;;4.30;2.20;;;23.40;99.90;;;;;;5107843;28;20080;-72
2021/07/15 05:57:43;;;;;;;10.57;2.40;;;23.60;99.90;;;;;;5111723;28;20073;-70
2021/07/15 06:00:20;;;;;;;10.48;2.53;;;23.70;99.90;;;;;;5103163;27;20363;-70
2021/07/15 06:02:46;;;;;;;7.13;1.95;;;23.80;99.90;;;;;;5111658;28;20081;-71
2021/07/15 06:05:15;;;;;;;13.40;2.72;;;23.80;99.90;;;;;;5106475;27;20024;-73
2021/07/15 06:07:40;;;;;;;9.57;2.42;;;23.80;99.90;;;;;;5099664;27;20035;-70
2021/07/15 06:10:09;;;;;;;4.82;2.05;;;23.70;99.90;;;;;;5111768;28;20738;-70
2021/07/15 06:12:35;;;;;;;5.38;2.83;;;23.90;99.90;;;;;;5106333;28;20028;-71
2021/07/15 06:15:00;;;;;;;6.65;2.78;;;24.00;99.90;;;;;;5108179;28;20020;-70
2021/07/15 06:17:26;;;;;;;8.18;2.75;;;24.20;99.90;;;;;;5099754;28;20031;-71
2021/07/15 06:19:53;;;;;;;5.53;2.67;;;24.40;99.90;;;;;;5107157;28;20031;-70
2021/07/15 06:22:20;;;;;;;5.43;2.25;;;24.30;99.90;;;;;;5111946;28;20055;-71
2021/07/15 06:24:46;;;;;;;5.80;2.67;;;24.60;99.90;;;;;;5108678;28;20058;-73
2021/07/15 06:27:12;;;;;;;6.68;2.80;;;25.00;99.90;;;;;;5091711;28;20028;-66
2021/07/15 06:29:37;;;;;;;4.93;2.45;;;25.40;99.90;;;;;;5090836;28;20032;-66
2021/07/15 06:32:03;;;;;;;7.57;2.78;;;25.60;99.90;;;;;;5102187;28;20034;-65
2021/07/15 06:34:29;;;;;;;7.78;2.40;;;25.60;99.90;;;;;;5112243;28;20614;-66
2021/07/15 06:36:54;;;;;;;5.25;2.50;;;25.80;99.90;;;;;;5090979;28;20031;-66
2021/07/15 06:39:20;;;;;;;28.88;4.00;;;26.00;99.90;;;;;;5092083;28;20478;-66
2021/07/15 06:41:46;;;;;;;11.95;2.83;;;26.10;99.90;;;;;;5094503;28;20024;-67
2021/07/15 06:44:13;;;;;;;6.90;3.08;;;26.10;99.90;;;;;;5112572;28;20043;-67
2021/07/15 06:46:40;;;;;;;7.60;2.67;;;26.20;99.90;;;;;;5110979;28;20034;-65
2021/07/15 06:49:06;;;;;;;15.30;3.20;;;26.40;99.90;;;;;;5111753;28;20024;-66
2021/07/15 06:51:33;;;;;;;16.10;2.80;;;25.70;99.90;;;;;;5111699;28;20019;-70
2021/07/15 06:53:59;;;;;;;11.68;3.47;;;25.60;99.90;;;;;;5110353;28;20019;-68
2021/07/15 06:56:28;;;;;;;11.35;2.47;;;25.90;99.90;;;;;;5095521;28;20077;-67
2021/07/15 06:58:54;;;;;;;6.60;2.58;;;26.10;99.90;;;;;;5091582;28;20074;-68
2021/07/15 07:01:20;;;;;;;6.43;2.63;;;26.20;99.90;;;;;;5092225;28;20119;-69
2021/07/15 07:03:45;;;;;;;6.15;2.33;;;26.30;99.90;;;;;;5090528;28;20099;-67
2021/07/15 07:06:11;;;;;;;7.55;3.00;;;26.50;99.90;;;;;;5097916;28;20098;-68
2021/07/15 07:08:37;;;;;;;6.03;2.30;;;26.50;99.90;;;;;;5105826;27;20024;-68
2021/07/15 07:11:03;;;;;;;8.07;2.88;;;26.40;99.90;;;;;;5101659;28;20027;-68
2021/07/15 07:13:28;;;;;;;10.55;3.10;;;26.40;99.90;;;;;;5098249;28;20394;-68
2021/07/15 07:15:54;;;;;;;9.00;3.22;;;26.50;99.90;;;;;;5095244;28;20055;-68
2021/07/15 07:18:21;;;;;;;13.45;4.15;;;26.60;99.90;;;;;;5106412;28;20052;-67
2021/07/15 07:20:47;;;;;;;9.98;2.72;;;26.40;99.90;;;;;;5090850;28;20478;-68
2021/07/15 07:23:13;;;;;;;12.35;3.28;;;26.30;99.90;;;;;;5089872;28;20505;-68
2021/07/15 07:25:40;;;;;;;8.23;2.72;;;26.30;99.90;;;;;;5091467;28;20020;-68
2021/07/15 07:28:06;;;;;;;7.80;2.28;;;26.40;99.90;;;;;;5101144;28;20042;-68
2021/07/15 07:30:32;;;;;;;12.55;3.10;;;26.30;99.90;;;;;;5109857;28;20396;-67
2021/07/15 07:32:58;;;;;;;3.25;1.80;;;26.30;99.90;;;;;;5090779;28;20430;-68
2021/07/15 07:35:23;;;;;;;4.85;2.15;;;26.40;99.90;;;;;;5091120;28;20115;-68
2021/07/15 07:37:49;;;;;;;6.40;2.42;;;26.60;99.90;;;;;;5089509;28;20106;-68
2021/07/15 07:40:16;;;;;;;4.35;1.60;;;26.60;99.90;;;;;;5090167;28;20052;-67
2021/07/15 07:42:42;;;;;;;19.77;3.60;;;26.60;99.90;;;;;;5091662;28;20512;-69
2021/07/15 07:45:09;;;;;;;7.90;2.03;;;26.50;99.90;;;;;;5091659;28;20494;-70
2021/07/15 07:47:36;;;;;;;14.38;2.38;;;26.40;99.90;;;;;;5100592;28;20703;-70
2021/07/15 07:50:02;;;;;;;4.63;1.60;;;26.30;99.90;;;;;;5109613;28;20033;-68
2021/07/15 07:52:28;;;;;;;9.18;2.67;;;26.20;99.90;;;;;;5107042;27;20106;-68
2021/07/15 07:54:53;;;;;;;12.90;2.05;;;26.20;99.90;;;;;;5106239;28;20106;-68
2021/07/15 07:57:19;;;;;;;4.18;1.95;;;26.20;99.90;;;;;;5100554;28;20020;-67
2021/07/15 07:59:45;;;;;;;4.70;2.20;;;25.90;99.90;;;;;;5089322;28;20020;-68
2021/07/15 08:02:10;;;;;;;10.02;2.17;;;26.10;99.90;;;;;;5103863;28;20477;-68
2021/07/15 08:04:36;;;;;;;4.82;2.30;;;26.20;99.90;;;;;;5110870;28;20102;-69
2021/07/15 08:07:03;;;;;;;10.27;2.42;;;26.30;99.90;;;;;;5098018;28;20024;-68
2021/07/15 08:09:31;;;;;;;7.78;1.88;;;26.50;99.90;;;;;;5110654;28;20505;-67
2021/07/15 08:11:57;;;;;;;6.85;2.58;;;26.60;99.90;;;;;;5109208;28;20027;-70
2021/07/15 08:14:23;;;;;;;8.85;2.13;;;26.20;99.90;;;;;;5109451;28;20016;-65
2021/07/15 08:16:50;;;;;;;22.30;2.92;;;25.80;99.90;;;;;;5108231;28;20016;-66
2021/07/15 08:19:16;;;;;;;4.75;1.98;;;25.70;99.90;;;;;;5092694;28;20024;-64
2021/07/15 08:21:42;;;;;;;15.00;2.75;;;25.60;99.90;;;;;;5103568;28;20132;-66
2021/07/15 08:24:10;;;;;;;11.43;3.00;;;25.50;99.90;;;;;;5114820;28;20119;-65
2021/07/15 08:26:38;;;;;;;6.15;2.65;;;25.40;99.90;;;;;;5109554;28;20035;-65
2021/07/15 08:29:04;;;;;;;7.07;2.13;;;25.40;99.90;;;;;;5104429;28;20031;-64
2021/07/15 08:31:29;;;;;;;5.10;1.80;;;25.50;99.90;;;;;;5099964;27;20020;-65
2021/07/15 08:33:58;;;;;;;12.43;3.85;;;25.50;99.90;;;;;;5110632;28;20045;-66
2021/07/15 08:36:28;;;;;;;5.05;2.25;;;25.70;99.90;;;;;;5104309;28;20097;-66
2021/07/15 08:38:54;;;;;;;4.57;2.22;;;25.80;99.90;;;;;;5114339;28;20537;-65
2021/07/15 08:41:20;;;;;;;8.98;2.55;;;25.80;99.90;;;;;;5110605;28;20092;-65
2021/07/15 08:43:46;;;;;;;7.78;2.13;;;25.70;99.90;;;;;;5110847;28;20027;-65
2021/07/15 08:46:15;;;;;;;13.63;2.15;;;25.60;99.90;;;;;;5115057;28;20051;-65
2021/07/15 08:48:42;;;;;;;8.45;2.17;;;25.50;99.90;;;;;;5094493;28;20406;-66
2021/07/15 08:51:10;;;;;;;11.43;2.05;;;25.50;99.90;;;;;;5093428;28;20058;-65
2021/07/15 08:53:36;;;;;;;5.95;1.95;;;25.50;99.90;;;;;;5101163;28;20036;-66
2021/07/15 08:58:46;;;;;;;5.55;1.95;;;25.60;99.90;;;;;;5093956;28;20528;-66
2021/07/15 09:01:13;;;;;;;7.43;2.15;;;25.60;99.90;;;;;;5098245;28;20024;-67
2021/07/15 09:03:39;;;;;;;7.80;2.97;;;25.70;99.90;;;;;;5114271;28;20030;-67
2021/07/15 09:06:05;;;;;;;9.35;2.97;;;25.70;99.90;;;;;;5113991;28;20116;-67
2021/07/15 09:08:32;;;;;;;13.43;2.70;;;25.80;99.90;;;;;;5096517;27;20036;-67
2021/07/15 09:11:04;;;;;;;5.35;2.17;;;25.80;99.90;;;;;;5095618;28;20028;-66
2021/07/15 09:13:30;;;;;;;6.60;2.33;;;25.90;99.90;;;;;;5113463;27;20096;-65
2021/07/15 09:15:56;;;;;;;5.85;1.95;;;26.00;99.90;;;;;;5113489;28;20024;-64
2021/07/15 09:18:22;;;;;;;5.72;2.10;;;26.00;99.90;;;;;;5096521;28;20032;-66
2021/07/15 09:20:48;;;;;;;4.55;2.70;;;25.90;99.90;;;;;;5091692;28;20038;-66
2021/07/15 09:23:16;;;;;;;6.82;2.35;;;25.90;99.90;;;;;;5104515;28;20024;-66
2021/07/15 09:25:41;;;;;;;7.20;3.05;;;25.90;99.90;;;;;;5113555;28;20044;-65
2021/07/15 09:28:14;;;;;;;5.22;2.15;;;25.80;99.90;;;;;;5099855;28;20024;-67
2021/07/15 09:30:41;;;;;;;9.05;4.55;;;25.90;99.90;;;;;;5091302;28;20024;-66
2021/07/15 09:33:12;;;;;;;9.25;3.25;;;26.10;99.90;;;;;;5091326;28;20045;-66
2021/07/15 09:35:44;;;;;;;6.15;2.30;;;26.30;99.90;;;;;;5091253;28;20020;-67
2021/07/15 09:38:11;;;;;;;5.45;1.75;;;26.00;99.90;;;;;;5093467;28;20017;-68
2021/07/15 09:40:50;;;;;;;4.43;2.00;;;25.70;99.90;;;;;;5104913;28;20050;-67
2021/07/15 09:43:27;;;;;;;7.00;2.03;;;25.80;99.90;;;;;;5099267;28;20470;-68
2021/07/15 09:46:00;;;;;;;9.93;2.63;;;25.80;99.90;;;;;;5110108;28;20023;-68
2021/07/15 09:48:30;;;;;;;6.82;2.42;;;25.80;99.90;;;;;;5113141;28;20117;-69
2021/07/15 09:51:00;;;;;;;3.10;1.90;;;25.80;99.90;;;;;;5111192;28;20024;-75
2021/07/15 09:53:36;;;;;;;7.47;3.22;;;25.70;99.90;;;;;;5112468;28;20285;-75
2021/07/15 09:56:23;;;;;;;7.22;2.45;;;25.90;99.90;;;;;;5103547;28;20024;-74
2021/07/15 09:58:50;;;;;;;9.68;2.95;;;26.10;99.90;;;;;;5108336;28;20055;-75
2021/07/15 10:01:19;;;;;;;9.32;2.60;;;26.30;99.90;;;;;;5092304;28;20027;-75
2021/07/15 10:03:50;;;;;;;11.18;2.85;;;26.40;99.90;;;;;;5094105;28;20049;-75
2021/07/15 10:06:18;;;;;;;15.32;2.75;;;26.10;99.90;;;;;;5097304;28;20136;-74
2021/07/15 10:08:46;;;;;;;5.93;2.33;;;26.20;99.90;;;;;;5112742;28;20030;-74
2021/07/15 10:11:14;;;;;;;7.10;2.63;;;26.50;99.90;;;;;;5113478;27;20430;-74
2021/07/15 10:13:41;;;;;;;5.85;2.15;;;26.40;99.90;;;;;;5111922;28;20027;-74
2021/07/15 10:16:08;;;;;;;5.88;2.17;;;26.50;99.90;;;;;;5109000;28;20038;-74
2021/07/15 10:18:37;;;;;;;7.10;2.15;;;26.50;99.90;;;;;;5092587;28;20078;-73
2021/07/15 10:21:05;;;;;;;5.85;1.90;;;26.30;99.90;;;;;;5092516;28;20024;-73
2021/07/15 10:23:32;;;;;;;5.28;2.38;;;26.20;99.90;;;;;;5091918;28;20028;-73
2021/07/15 10:26:02;;;;;;;11.23;2.45;;;26.40;99.90;;;;;;5093064;28;20085;-73
2021/07/15 10:28:31;;;;;;;5.32;3.20;;;26.60;99.90;;;;;;5092627;28;20426;-72
2021/07/15 10:30:59;;;;;;;6.93;2.38;;;26.60;99.90;;;;;;5092864;28;20024;-73
2021/07/15 10:33:26;;;;;;;4.13;1.95;;;26.70;99.90;;;;;;5092139;28;20048;-73
2021/07/15 10:35:52;;;;;;;6.35;2.05;;;26.90;99.90;;;;;;5093805;28;20096;-73
2021/07/15 10:38:20;;;;;;;8.43;1.73;;;26.90;99.90;;;;;;5091292;28;20424;-72
2021/07/15 10:40:48;;;;;;;7.72;2.95;;;26.90;99.90;;;;;;5092396;28;20371;-72
2021/07/15 10:43:15;;;;;;;10.68;1.80;;;26.60;99.90;;;;;;5107696;28;20031;-75
2021/07/15 10:45:40;;;;;;;9.68;3.40;;;26.60;99.90;;;;;;5107838;28;20023;-72
2021/07/15 10:48:06;;;;;;;4.72;3.15;;;26.60;99.90;;;;;;5112153;28;20031;-72
2021/07/15 10:50:32;;;;;;;6.93;2.92;;;26.60;99.90;;;;;;5102464;28;20035;-72
2021/07/15 10:52:59;;;;;;;3.97;2.20;;;26.60;99.90;;;;;;5108015;28;20114;-72
2021/07/15 10:55:25;;;;;;;5.55;2.45;;;26.80;99.90;;;;;;5090713;28;20020;-72
2021/07/15 10:57:51;;;;;;;7.03;2.70;;;26.80;99.90;;;;;;5098459;28;20023;-73
2021/07/15 11:00:22;;;;;;;6.55;2.47;;;26.70;99.90;;;;;;5090189;28;20028;-71
2021/07/15 11:03:06;;;;;;;6.55;2.05;;;26.70;99.90;;;;;;5105188;28;20677;-73
2021/07/15 11:05:32;;;;;;;4.30;2.13;;;26.70;99.90;;;;;;5110115;28;20035;-73
2021/07/15 11:07:58;;;;;;;4.93;2.30;;;27.10;99.90;;;;;;5110104;28;20084;-72
2021/07/15 11:10:24;;;;;;;6.63;2.45;;;27.30;99.90;;;;;;5094158;28;20032;-74
2021/07/15 11:13:05;;;;;;;7.05;1.90;;;27.10;99.90;;;;;;5090183;28;20402;-73
2021/07/15 11:15:54;;;;;;;9.27;2.63;;;26.80;99.90;;;;;;5091841;28;20024;-73
2021/07/15 11:18:41;;;;;;;7.05;2.28;;;26.90;99.90;;;;;;5091137;28;20042;-73
2021/07/15 11:21:30;;;;;;;4.97;2.22;;;26.80;99.90;;;;;;5093334;28;20026;-72
2021/07/15 11:24:05;;;;;;;4.07;1.60;;;26.80;99.90;;;;;;5101246;28;20023;-72
2021/07/15 11:26:34;;;;;;;5.72;2.28;;;27.00;99.90;;;;;;5110406;28;20024;-72
2021/07/15 11:29:01;;;;;;;6.28;2.55;;;27.10;99.90;;;;;;5105798;28;20092;-73
2021/07/15 11:31:48;;;;;;;3.78;2.22;;;27.30;99.90;;;;;;5091368;28;20122;-72
2021/07/15 11:34:36;;;;;;;4.70;1.90;;;27.40;99.90;;;;;;5089899;28;20027;-74
2021/07/15 11:37:36;;;;;;;11.60;2.13;;;27.30;99.90;;;;;;5089872;28;20616;-75
2021/07/15 11:40:27;;;;;;;4.55;1.85;;;27.30;99.90;;;;;;5093726;28;20046;-75
2021/07/15 11:42:53;;;;;;;6.10;2.30;;;27.30;99.90;;;;;;5082783;28;20561;-73
2021/07/15 11:45:18;;;;;;;6.03;2.55;;;27.30;99.90;;;;;;5094841;28;20345;-73
2021/07/15 11:47:54;;;;;;;4.90;1.95;;;27.40;99.90;;;;;;5107083;28;20023;-75
2021/07/15 11:50:38;;;;;;;11.88;3.72;;;27.30;99.90;;;;;;5109462;28;20138;-73
2021/07/15 11:53:17;;;;;;;6.93;1.98;;;27.30;99.90;;;;;;5110053;28;20512;-72
2021/07/15 11:55:48;;;;;;;8.88;2.28;;;27.70;99.90;;;;;;5098239;28;20035;-75
2021/07/15 11:58:38;;;;;;;6.63;2.33;;;27.60;99.90;;;;;;5090805;28;20359;-73
2021/07/15 12:01:20;;;;;;;12.77;2.10;;;27.70;99.90;;;;;;5104649;28;20542;-73
2021/07/15 12:03:59;;;;;;;5.32;2.45;;;27.90;99.90;;;;;;5110594;28;20028;-73
2021/07/15 12:06:25;;;;;;;6.45;1.92;;;28.10;99.90;;;;;;5095903;28;20028;-72
2021/07/15 12:08:51;;;;;;;5.70;2.35;;;28.10;99.90;;;;;;5088887;28;20439;-74
2021/07/15 12:11:21;;;;;;;3.85;2.13;;;28.00;99.90;;;;;;5102177;28;20107;-73
2021/07/15 12:13:53;;;;;;;7.07;2.50;;;28.10;99.90;;;;;;5109207;28;20035;-72
2021/07/15 12:16:40;;;;;;;;;;;;;;;;;;;;;
2021/07/15 12:19:09;;;;;;;4.03;2.10;;;27.80;99.90;;;;;;5110875;28;20515;-74
2021/07/15 12:21:37;;;;;;;3.03;2.05;;;27.80;99.90;;;;;;5113128;28;20031;-72
2021/07/15 12:24:17;;;;;;;5.57;2.50;;;27.80;99.90;;;;;;5117681;28;20134;-73
2021/07/15 12:26:43;;;;;;;6.45;2.38;;;27.90;99.90;;;;;;5114061;28;20023;-72
2021/07/15 12:29:15;;;;;;;8.10;3.05;;;27.80;99.90;;;;;;5113330;28;20431;-73
2021/07/15 12:31:41;;;;;;;;;;;27.90;99.90;;;;;;5096989;28;20115;-73
2021/07/15 12:34:09;;;;;;;7.47;1.98;;;28.00;99.90;;;;;;5088658;28;19908;-73
2021/07/15 12:36:37;;;;;;;5.03;2.65;;;27.70;99.90;;;;;;5088982;28;20051;-72
2021/07/15 12:39:12;;;;;;;6.72;1.90;;;27.70;99.90;;;;;;5088716;28;20032;-73
2021/07/15 12:41:41;;;;;;;4.72;1.75;;;27.60;99.90;;;;;;5088015;28;20449;-71
2021/07/15 12:44:09;;;;;;;8.00;2.15;;;27.50;99.90;;;;;;5108889;28;20042;-74
2021/07/15 12:46:48;;;;;;;5.75;2.95;;;27.50;99.90;;;;;;5093743;28;20516;-71
2021/07/15 12:49:22;;;;;;;8.05;1.95;;;27.60;99.90;;;;;;5106990;28;20027;-72
2021/07/15 12:51:53;;;;;;;7.38;2.13;;;27.60;99.90;;;;;;5107384;28;20024;-72
2021/07/15 12:54:30;;;;;;;8.67;3.53;;;27.50;99.90;;;;;;5104740;28;20140;-73
2021/07/15 12:56:59;;;;;;;6.60;2.28;;;27.60;99.90;;;;;;5088834;28;20052;-73
2021/07/15 12:59:26;;;;;;;8.23;1.58;;;27.50;99.90;;;;;;5088600;28;20024;-72